Time;durP1;ratioP1;P1;durP2;ratioP2;P2;SDS_P1;SDS_P2;PMS_P1;PMS_P2;Temp;Humidity;BMP_temperature;BMP_pressure;BME280_temperature;BME280_humidity;BME280_pressure;Samples;Min_cycle;Max_cycle;Signal;HPM_P1;HPM_P2
2024/02/08 00:00:12;;;;;;;15.37;2.57;;;4.50;99.90;;;;;;5075087;28;20210;-78
2024/02/08 00:02:38;;;;;;;17.10;3.08;;;4.50;99.90;;;;;;5075248;28;20179;-79
2024/02/08 00:05:06;;;;;;;15.50;2.27;;;4.60;99.90;;;;;;5075054;28;20705;-79
2024/02/08 00:07:32;;;;;;;16.30;3.00;;;4.60;99.90;;;;;;5056808;28;20606;-78
2024/02/08 00:09:58;;;;;;;16.80;2.77;;;4.60;99.90;;;;;;5074665;28;20203;-79
2024/02/08 00:12:24;;;;;;;16.17;3.00;;;4.70;99.90;;;;;;5075095;28;20502;-80
2024/02/08 00:14:50;;;;;;;17.00;3.60;;;4.70;99.90;;;;;;5074673;28;20649;-79
2024/02/08 00:17:20;;;;;;;16.10;3.57;;;4.70;99.90;;;;;;5074393;28;20478;-79
2024/02/08 00:19:48;;;;;;;15.27;2.67;;;4.70;99.90;;;;;;5074957;28;20734;-78
2024/02/08 00:22:20;;;;;;;15.75;2.92;;;4.70;99.90;;;;;;5074837;28;20634;-79
2024/02/08 00:24:46;;;;;;;24.13;3.72;;;4.70;99.90;;;;;;5074680;28;20228;-79
2024/02/08 00:27:12;;;;;;;16.50;3.40;;;4.60;99.90;;;;;;5074590;28;20271;-79
2024/02/08 00:29:41;;;;;;;17.40;3.97;;;4.60;99.90;;;;;;5074406;28;20262;-79
2024/02/08 00:32:08;;;;;;;18.90;3.75;;;4.60;99.90;;;;;;5074500;28;20160;-79
2024/02/08 00:34:33;;;;;;;16.10;3.40;;;4.60;99.90;;;;;;5056272;28;20184;-80
2024/02/08 00:36:59;;;;;;;16.30;3.43;;;4.70;99.90;;;;;;5074203;28;20199;-80
2024/02/08 00:39:25;;;;;;;17.27;3.70;;;4.60;99.90;;;;;;5074352;28;20180;-79
2024/02/08 00:41:51;;;;;;;21.10;3.80;;;4.70;99.90;;;;;;5074365;28;20248;-79
2024/02/08 00:44:19;;;;;;;17.03;3.60;;;4.70;99.90;;;;;;5073772;28;20188;-79
2024/02/08 00:46:45;;;;;;;17.45;3.75;;;4.60;99.90;;;;;;5074419;28;20413;-78
2024/02/08 00:49:11;;;;;;;16.10;3.50;;;4.60;99.90;;;;;;5074050;28;20172;-79
2024/02/08 00:51:36;;;;;;;17.10;3.70;;;4.50;99.90;;;;;;5074585;28;20165;-79
2024/02/08 00:54:02;;;;;;;17.53;3.93;;;4.50;99.90;;;;;;5074617;28;20532;-79
2024/02/08 00:56:28;;;;;;;17.73;3.40;;;4.60;99.90;;;;;;5074704;28;20167;-79
2024/02/08 00:58:54;;;;;;;16.10;2.83;;;4.60;99.90;;;;;;5056445;28;20472;-81
2024/02/08 01:01:20;;;;;;;16.27;3.43;;;4.60;99.90;;;;;;5077362;28;20226;-79
2024/02/08 01:03:46;;;;;;;17.07;3.97;;;4.50;99.90;;;;;;5060500;28;20402;-80
2024/02/08 01:06:14;;;;;;;16.57;3.60;;;4.50;99.90;;;;;;5078752;28;20239;-79
2024/02/08 01:08:40;;;;;;;16.55;3.88;;;4.50;99.90;;;;;;5078641;28;20761;-80
2024/02/08 01:11:05;;;;;;;19.37;3.27;;;4.50;99.90;;;;;;5078298;28;20194;-79
2024/02/08 01:13:31;;;;;;;19.50;3.70;;;4.40;99.90;;;;;;5079054;28;20243;-79
2024/02/08 01:16:00;;;;;;;17.30;3.90;;;4.40;99.90;;;;;;5060553;28;20660;-80
2024/02/08 01:18:26;;;;;;;17.52;4.18;;;4.40;99.90;;;;;;5078897;28;20461;-80
2024/02/08 01:20:54;;;;;;;22.20;4.45;;;4.40;99.90;;;;;;5060688;28;20524;-79
2024/02/08 01:23:22;;;;;;;17.83;4.28;;;4.40;99.90;;;;;;5077956;28;20165;-79
2024/02/08 01:25:48;;;;;;;20.42;4.53;;;4.50;99.90;;;;;;5077740;28;20181;-79
2024/02/08 01:28:14;;;;;;;18.87;4.73;;;4.60;99.90;;;;;;5077703;28;20215;-79
2024/02/08 01:30:39;;;;;;;20.87;4.73;;;4.60;99.90;;;;;;5077597;28;20164;-79
2024/02/08 01:33:11;;;;;;;17.17;4.30;;;4.60;99.90;;;;;;5077529;28;20191;-79
2024/02/08 01:35:40;;;;;;;17.60;4.57;;;4.50;99.90;;;;;;5078189;28;20214;-79
2024/02/08 01:38:07;;;;;;;17.25;4.18;;;4.50;99.90;;;;;;5059427;28;20212;-79
2024/02/08 01:40:35;;;;;;;18.15;4.13;;;4.50;99.90;;;;;;5059508;28;20196;-79
2024/02/08 01:43:00;;;;;;;18.45;5.30;;;4.50;99.90;;;;;;5077412;28;20165;-78
2024/02/08 01:45:34;;;;;;;17.53;4.37;;;4.50;99.90;;;;;;5077807;28;20183;-79
2024/02/08 01:48:09;;;;;;;18.10;4.63;;;4.50;99.90;;;;;;5059648;28;20491;-79
2024/02/08 01:50:37;;;;;;;18.08;4.25;;;4.60;99.90;;;;;;5060665;28;20176;-79
2024/02/08 01:53:05;;;;;;;17.30;4.20;;;4.50;99.90;;;;;;5077320;28;20161;-79
2024/02/08 01:55:35;;;;;;;19.10;3.90;;;4.50;99.90;;;;;;5077393;28;20168;-79
2024/02/08 01:58:03;;;;;;;18.58;4.50;;;4.60;99.90;;;;;;5077331;28;20211;-79
2024/02/08 02:00:35;;;;;;;21.35;4.25;;;4.60;99.90;;;;;;5077379;28;20214;-79
2024/02/08 02:03:01;;;;;;;18.00;4.47;;;4.60;99.90;;;;;;5059505;28;20161;-78
2024/02/08 02:05:28;;;;;;;18.73;5.05;;;4.60;99.90;;;;;;5077453;28;20253;-79
2024/02/08 02:07:54;;;;;;;18.92;5.25;;;4.60;99.90;;;;;;5077245;28;20193;-79
2024/02/08 02:10:20;;;;;;;18.60;4.80;;;4.70;99.90;;;;;;5076642;28;20171;-79
2024/02/08 02:12:48;;;;;;;19.50;5.07;;;4.70;99.90;;;;;;5076346;28;20165;-79
2024/02/08 02:15:15;;;;;;;18.45;4.53;;;4.70;99.90;;;;;;5077134;28;20945;-79
2024/02/08 02:17:47;;;;;;;19.88;5.13;;;4.70;99.90;;;;;;5076887;28;20192;-79
2024/02/08 02:20:18;;;;;;;17.70;4.10;;;4.70;99.90;;;;;;5059072;28;20537;-79
2024/02/08 02:22:47;;;;;;;18.20;4.82;;;4.60;99.90;;;;;;5076589;28;20152;-79
2024/02/08 02:25:16;;;;;;;17.90;4.55;;;4.70;99.90;;;;;;5077427;28;20175;-79
2024/02/08 02:27:42;;;;;;;18.52;4.60;;;4.70;99.90;;;;;;5076607;28;20192;-79
2024/02/08 02:30:15;;;;;;;17.83;4.07;;;4.70;99.90;;;;;;5076445;28;20168;-79
2024/02/08 02:32:52;;;;;;;18.27;4.55;;;4.70;99.90;;;;;;5076514;28;20710;-79
2024/02/08 02:35:18;;;;;;;20.42;4.97;;;4.70;99.90;;;;;;5076934;28;20214;-79
2024/02/08 02:37:49;;;;;;;17.52;4.57;;;4.70;99.90;;;;;;5075996;28;20279;-79
2024/02/08 02:40:24;;;;;;;19.02;4.50;;;4.60;99.90;;;;;;5076575;28;20153;-79
2024/02/08 02:42:56;;;;;;;18.90;4.63;;;4.70;99.90;;;;;;5076767;28;20156;-79
2024/02/08 02:45:23;;;;;;;19.23;4.57;;;4.60;99.90;;;;;;5076810;28;20160;-79
2024/02/08 02:47:50;;;;;;;20.25;5.07;;;4.70;99.90;;;;;;5076155;28;20257;-79
2024/02/08 02:50:19;;;;;;;19.90;5.82;;;4.70;99.90;;;;;;5058298;28;20598;-79
2024/02/08 02:52:47;;;;;;;19.25;5.43;;;4.60;99.90;;;;;;5076281;28;20161;-79
2024/02/08 02:55:13;;;;;;;21.42;6.30;;;4.60;99.90;;;;;;5075842;28;20169;-79
2024/02/08 02:57:42;;;;;;;24.30;6.10;;;4.60;99.90;;;;;;5076149;28;20214;-79
2024/02/08 03:00:21;;;;;;;20.80;6.78;;;4.60;99.90;;;;;;5076138;28;20564;-79
2024/02/08 03:02:57;;;;;;;19.45;6.22;;;4.70;99.90;;;;;;5076692;28;20137;-79
2024/02/08 03:05:24;;;;;;;18.42;5.22;;;4.70;99.90;;;;;;5075865;28;20564;-79
2024/02/08 03:07:50;;;;;;;21.33;5.50;;;4.70;99.90;;;;;;5075869;28;20661;-79
2024/02/08 03:10:20;;;;;;;21.23;7.03;;;4.70;99.90;;;;;;5057310;28;20561;-79
2024/02/08 03:12:54;;;;;;;21.77;6.70;;;4.60;99.90;;;;;;5075892;28;20164;-79
2024/02/08 03:15:22;;;;;;;21.77;6.72;;;4.60;99.90;;;;;;5075973;28;20186;-79
2024/02/08 03:17:48;;;;;;;19.58;5.60;;;4.60;99.90;;;;;;5075717;28;20279;-79
2024/02/08 03:20:23;;;;;;;21.17;6.63;;;4.70;99.90;;;;;;5075381;28;20184;-79
2024/02/08 03:22:49;;;;;;;26.95;7.05;;;4.70;99.90;;;;;;5057729;28;20161;-78
2024/02/08 03:25:15;;;;;;;21.45;6.70;;;4.60;99.90;;;;;;5057569;28;20615;-79
2024/02/08 03:27:44;;;;;;;18.30;5.17;;;4.60;99.90;;;;;;5075243;28;20241;-79
2024/02/08 03:30:19;;;;;;;29.55;8.07;;;4.60;99.90;;;;;;5057481;28;20792;-79
2024/02/08 03:32:49;;;;;;;23.60;5.82;;;4.50;99.90;;;;;;5057570;28;20164;-79
2024/02/08 03:35:25;;;;;;;22.13;6.07;;;4.50;99.90;;;;;;5075402;28;20153;-79
2024/02/08 03:38:00;;;;;;;18.73;5.90;;;4.60;99.90;;;;;;5075046;28;20295;-79
2024/02/08 03:40:31;;;;;;;24.85;7.35;;;4.60;99.90;;;;;;5074880;28;20148;-79
2024/02/08 03:42:57;;;;;;;21.25;6.78;;;4.70;99.90;;;;;;5075133;28;20145;-79
2024/02/08 03:45:23;;;;;;;24.83;6.38;;;4.60;99.90;;;;;;5075186;28;20161;-79
2024/02/08 03:47:52;;;;;;;20.80;6.57;;;4.60;99.90;;;;;;5074926;28;20185;-79
2024/02/08 03:50:24;;;;;;;21.00;6.05;;;4.60;99.90;;;;;;5074325;28;20169;-79
2024/02/08 03:52:50;;;;;;;23.15;5.93;;;4.60;99.90;;;;;;5074814;28;20149;-79
2024/02/08 03:55:17;;;;;;;27.85;6.90;;;4.50;99.90;;;;;;5075024;28;20168;-79
2024/02/08 03:57:48;;;;;;;25.95;6.18;;;4.50;99.90;;;;;;5056961;28;20211;-79
2024/02/08 04:00:22;;;;;;;25.77;7.22;;;4.50;99.90;;;;;;5074895;28;20567;-79
2024/02/08 04:02:48;;;;;;;21.10;6.35;;;4.60;99.90;;;;;;5074876;28;20218;-79
2024/02/08 04:05:36;;;;;;;20.88;5.90;;;4.60;99.90;;;;;;5056926;28;20210;-79
2024/02/08 04:08:22;;;;;;;21.33;6.28;;;4.50;99.90;;;;;;5075101;28;20192;-79
2024/02/08 04:54:40;;;;;;;27.50;8.55;;;4.50;99.90;;;;;;5074165;28;20176;-79
2024/02/08 04:57:07;;;;;;;25.30;8.30;;;4.50;99.90;;;;;;5073955;28;20197;-79
2024/02/08 04:59:36;;;;;;;26.05;8.80;;;4.60;99.90;;;;;;5073868;28;20425;-79
2024/02/08 05:02:06;;;;;;;22.73;8.77;;;4.60;99.90;;;;;;5074610;28;20179;-79
2024/02/08 05:04:35;;;;;;;27.05;8.32;;;4.60;99.90;;;;;;5073815;28;20229;-79
2024/02/08 05:07:04;;;;;;;26.55;9.00;;;4.60;99.90;;;;;;5073918;28;20177;-79
2024/02/08 05:09:33;;;;;;;26.90;9.30;;;4.60;99.90;;;;;;5074936;28;20652;-79
2024/02/08 05:11:59;;;;;;;27.20;8.25;;;4.50;99.90;;;;;;5055868;28;20199;-79
2024/02/08 05:14:28;;;;;;;24.23;8.60;;;4.50;99.90;;;;;;5074108;28;20214;-79
2024/02/08 05:16:56;;;;;;;32.38;9.40;;;4.50;99.90;;;;;;5074279;28;20220;-79
2024/02/08 05:19:28;;;;;;;27.92;8.63;;;4.50;99.90;;;;;;5073932;28;20525;-79
2024/02/08 05:21:58;;;;;;;25.95;8.60;;;4.60;99.90;;;;;;5074222;28;20164;-79
2024/02/08 05:24:27;;;;;;;25.60;8.60;;;4.60;99.90;;;;;;5073665;28;20182;-79
2024/02/08 05:26:56;;;;;;;28.73;8.65;;;4.60;99.90;;;;;;5055777;28;20278;-79
2024/02/08 05:29:22;;;;;;;25.15;8.80;;;4.70;99.90;;;;;;5074058;28;20161;-79
2024/02/08 05:31:49;;;;;;;26.30;7.80;;;4.70;99.90;;;;;;5073803;28;20222;-80
2024/02/08 05:34:15;;;;;;;22.50;7.75;;;4.70;99.90;;;;;;5073574;28;20406;-79
2024/02/08 05:36:42;;;;;;;25.00;8.40;;;4.60;99.90;;;;;;5073767;28;20554;-79
2024/02/08 05:39:12;;;;;;;40.53;9.32;;;4.70;99.90;;;;;;5073417;28;20704;-79
2024/02/08 05:41:44;;;;;;;27.17;8.85;;;4.70;99.90;;;;;;5074318;28;20141;-79
2024/02/08 05:44:12;;;;;;;27.67;9.50;;;4.60;99.90;;;;;;5073815;28;20605;-79
2024/02/08 05:46:38;;;;;;;29.42;9.85;;;4.60;99.90;;;;;;5073980;28;20164;-79
2024/02/08 05:49:11;;;;;;;26.35;8.65;;;4.50;99.90;;;;;;5077639;28;20643;-80
2024/02/08 05:51:46;;;;;;;28.98;8.55;;;4.50;99.90;;;;;;5077704;28;20141;-79
2024/02/08 05:54:20;;;;;;;30.00;10.00;;;4.60;99.90;;;;;;5059239;28;20164;-79
2024/02/08 05:56:46;;;;;;;30.60;9.00;;;4.60;99.90;;;;;;5077464;28;20177;-79
2024/02/08 05:59:17;;;;;;;28.58;9.30;;;4.60;99.90;;;;;;5077300;28;20160;-79
2024/02/08 06:01:44;;;;;;;30.33;9.00;;;4.70;99.90;;;;;;5077568;28;20145;-79
2024/02/08 06:04:22;;;;;;;26.90;10.18;;;4.70;99.90;;;;;;5077318;28;20543;-79
2024/02/08 06:07:05;;;;;;;25.75;8.50;;;4.60;99.90;;;;;;5077172;28;20189;-79
2024/02/08 06:12:09;;;;;;;27.67;9.77;;;4.70;99.90;;;;;;5077004;28;20521;-79
2024/02/08 06:14:38;;;;;;;26.23;9.40;;;4.70;99.90;;;;;;5076997;28;20244;-79
2024/02/08 06:17:07;;;;;;;28.85;9.70;;;4.80;99.90;;;;;;5076939;28;20198;-79
2024/02/08 06:19:37;;;;;;;33.30;9.30;;;4.70;99.90;;;;;;5076950;28;20157;-78
2024/02/08 06:22:19;;;;;;;30.45;9.52;;;4.70;99.90;;;;;;5077244;28;20161;-78
2024/02/08 06:24:46;;;;;;;25.80;8.35;;;4.70;99.90;;;;;;5076999;28;20188;-78
2024/02/08 06:27:15;;;;;;;26.00;9.10;;;4.70;99.90;;;;;;5076836;28;20669;-80
2024/02/08 06:29:49;;;;;;;25.50;8.18;;;4.70;99.90;;;;;;5076870;28;20244;-79
2024/02/08 06:38:00;;;;;;;29.08;9.55;;;4.50;99.90;;;;;;5042950;28;20590;-80
2024/02/08 07:37:25;;;;;;;26.58;7.40;;;4.70;99.90;;;;;;5074797;28;20226;-79
2024/02/08 07:40:18;;;;;;;27.60;8.20;;;4.60;99.90;;;;;;5074999;28;20180;-79
2024/02/08 07:42:43;;;;;;;25.25;8.13;;;4.60;99.90;;;;;;5057457;28;20489;-79
2024/02/08 07:45:12;;;;;;;30.40;8.80;;;4.60;99.90;;;;;;5057121;28;20616;-79
2024/02/08 07:47:39;;;;;;;25.27;8.43;;;4.60;99.90;;;;;;5075044;28;20434;-79
2024/02/08 07:50:08;;;;;;;25.67;7.55;;;4.60;99.90;;;;;;5074882;28;20173;-79
2024/02/08 07:52:45;;;;;;;24.15;6.07;;;4.70;99.90;;;;;;5074986;28;20172;-79
2024/02/08 07:57:57;;;;;;;24.40;6.63;;;4.60;99.90;;;;;;5075228;28;20287;-79
2024/02/08 08:03:15;;;;;;;22.45;6.90;;;4.70;99.90;;;;;;5074471;28;20185;-79
2024/02/08 08:05:44;;;;;;;22.40;6.50;;;4.70;99.90;;;;;;5074535;28;20152;-79
2024/02/08 08:08:24;;;;;;;21.27;5.63;;;4.60;99.90;;;;;;5074384;28;20245;-79
2024/02/08 08:10:57;;;;;;;25.63;6.72;;;4.60;99.90;;;;;;5073606;28;20145;-79
2024/02/08 08:18:58;;;;;;;21.48;5.90;;;4.60;99.90;;;;;;5074279;28;20192;-80
2024/02/08 08:21:29;;;;;;;24.75;7.53;;;4.60;99.90;;;;;;5074201;28;20184;-78
2024/02/08 08:24:02;;;;;;;20.45;5.78;;;4.70;99.90;;;;;;5073942;28;20646;-78
2024/02/08 08:26:39;;;;;;;23.45;5.85;;;4.70;99.90;;;;;;5073976;28;20180;-79
2024/02/08 08:29:13;;;;;;;20.48;5.63;;;4.80;99.90;;;;;;5074443;28;20148;-79
2024/02/08 08:31:54;;;;;;;22.08;6.47;;;4.80;99.90;;;;;;5055966;28;20183;-79
2024/02/08 08:37:02;;;;;;;23.27;6.43;;;4.70;99.90;;;;;;5073787;28;20279;-79
2024/02/08 08:40:20;;;;;;;20.48;5.30;;;4.70;99.90;;;;;;5055889;28;20186;-78
2024/02/08 08:42:34;;;;;;;24.20;7.32;;;4.70;99.90;;;;;;5073804;28;20164;-78
2024/02/08 08:45:04;;;;;;;25.85;7.25;;;4.70;99.90;;;;;;5056123;28;20255;-79
2024/02/08 08:47:30;;;;;;;28.35;6.80;;;4.70;99.90;;;;;;5074111;28;20191;-79
2024/02/08 08:49:56;;;;;;;28.45;8.18;;;4.80;99.90;;;;;;5073903;28;20256;-79
2024/02/08 08:52:25;;;;;;;25.73;7.03;;;4.80;99.90;;;;;;5074001;28;20164;-79
2024/02/08 08:54:57;;;;;;;25.55;6.70;;;4.80;99.90;;;;;;5074039;28;20175;-79
2024/02/08 08:57:25;;;;;;;27.40;8.23;;;4.90;99.90;;;;;;5073646;28;20283;-79
2024/02/08 08:59:52;;;;;;;24.80;7.72;;;5.00;99.90;;;;;;5056010;28;20576;-79
2024/02/08 09:02:19;;;;;;;24.15;7.32;;;5.00;99.90;;;;;;5055945;28;20641;-78
2024/02/08 09:04:46;;;;;;;25.33;6.85;;;5.00;99.90;;;;;;5056169;28;20164;-79
2024/02/08 09:07:13;;;;;;;24.00;7.05;;;5.10;99.90;;;;;;5073855;28;20190;-79
2024/02/08 09:10:01;;;;;;;23.13;7.05;;;5.10;99.90;;;;;;5073985;28;20160;-79
2024/02/08 09:12:28;;;;;;;22.02;6.82;;;5.20;99.90;;;;;;5074058;28;20176;-79
2024/02/08 09:14:59;;;;;;;25.05;7.28;;;5.30;99.90;;;;;;5074400;28;20160;-79
2024/02/08 09:17:25;;;;;;;26.73;7.82;;;5.20;99.90;;;;;;5073853;28;20197;-79
2024/02/08 09:19:51;;;;;;;26.38;7.03;;;5.20;99.90;;;;;;5074785;28;20167;-79
2024/02/08 09:22:20;;;;;;;25.25;7.75;;;5.20;99.90;;;;;;5074734;28;20164;-79
2024/02/08 09:24:48;;;;;;;22.40;6.75;;;5.10;99.90;;;;;;5077856;28;20160;-79
2024/02/08 09:27:18;;;;;;;23.98;7.10;;;5.20;99.90;;;;;;5077545;28;20202;-79
2024/02/08 09:29:50;;;;;;;26.33;7.18;;;5.20;99.90;;;;;;5077995;28;20168;-79
2024/02/08 09:35:00;;;;;;;23.50;6.75;;;5.10;99.90;;;;;;5077946;28;20155;-80
2024/02/08 09:37:29;;;;;;;20.80;5.77;;;5.20;99.90;;;;;;5077442;28;20568;-79
2024/02/08 09:42:27;;;;;;;22.27;6.00;;;5.20;99.90;;;;;;5077423;28;20156;-79
2024/02/08 09:45:18;;;;;;;21.90;6.63;;;5.20;99.90;;;;;;5077113;28;20160;-79
2024/02/08 09:48:06;;;;;;;21.95;6.30;;;5.20;99.90;;;;;;5077339;28;20187;-79
2024/02/08 09:50:50;;;;;;;23.23;6.60;;;5.20;99.90;;;;;;5076849;28;20148;-79
2024/02/08 09:53:30;;;;;;;21.38;6.05;;;5.20;99.90;;;;;;5077217;28;20145;-79
2024/02/08 09:56:15;;;;;;;23.85;7.10;;;5.20;99.90;;;;;;5077295;28;20156;-79
2024/02/08 09:58:46;;;;;;;21.20;5.57;;;5.20;99.90;;;;;;5076927;28;20279;-79
2024/02/08 10:01:22;;;;;;;20.80;6.88;;;5.20;99.90;;;;;;5076785;28;20517;-78
2024/02/08 10:04:07;;;;;;;20.10;5.28;;;5.20;99.90;;;;;;5077185;28;20152;-79
2024/02/08 10:07:15;;;;;;;21.73;5.50;;;5.20;99.90;;;;;;5077501;28;20621;-79
2024/02/08 10:12:40;;;;;;;21.65;6.07;;;5.20;99.90;;;;;;4995138;28;20726;-79
2024/02/08 10:15:14;;;;;;;20.10;5.90;;;5.40;99.90;;;;;;5066482;28;20183;-80
2024/02/08 10:17:43;;;;;;;24.00;6.55;;;5.40;99.90;;;;;;5058220;28;20573;-79
2024/02/08 10:22:54;;;;;;;20.13;5.22;;;5.30;99.90;;;;;;5076746;28;20183;-79
2024/02/08 10:28:10;;;;;;;20.30;5.80;;;5.30;99.90;;;;;;5075994;28;20275;-79
2024/02/08 10:30:36;;;;;;;20.83;5.72;;;5.30;99.90;;;;;;5058358;28;20637;-79
2024/02/08 10:33:14;;;;;;;21.35;5.57;;;5.40;99.90;;;;;;5075568;28;20196;-79
2024/02/08 10:35:41;;;;;;;23.35;6.82;;;5.50;99.90;;;;;;5076074;28;20682;-79
2024/02/08 10:38:29;;;;;;;19.15;4.70;;;5.50;99.90;;;;;;5075898;28;20204;-79
2024/02/08 10:40:57;;;;;;;21.35;6.60;;;5.40;99.90;;;;;;5058157;28;20210;-79
2024/02/08 10:43:25;;;;;;;20.50;6.00;;;5.40;99.90;;;;;;5075896;28;20169;-79
2024/02/08 10:46:02;;;;;;;22.10;6.32;;;5.40;99.90;;;;;;5058044;28;20164;-79
2024/02/08 10:48:29;;;;;;;22.58;7.20;;;5.50;99.90;;;;;;5075703;28;20180;-79
2024/02/08 10:51:02;;;;;;;22.65;6.10;;;5.50;99.90;;;;;;5075719;28;20164;-79
2024/02/08 10:53:43;;;;;;;21.60;5.70;;;5.60;99.90;;;;;;5057771;28;20298;-79
2024/02/08 10:56:14;;;;;;;22.73;5.50;;;5.60;99.90;;;;;;5076025;28;20152;-79
2024/02/08 10:58:55;;;;;;;22.60;6.85;;;5.60;99.90;;;;;;5075546;28;20701;-79
2024/02/08 11:02:00;;;;;;;21.50;5.32;;;5.60;99.90;;;;;;5075486;28;20145;-79
2024/02/08 11:04:40;;;;;;;22.33;6.13;;;5.60;99.90;;;;;;5075159;28;20172;-80
2024/02/08 11:07:18;;;;;;;20.55;4.97;;;5.60;99.90;;;;;;5075393;28;20194;-79
2024/02/08 11:09:44;;;;;;;20.77;5.60;;;5.60;99.90;;;;;;5075472;28;20199;-79
2024/02/08 11:12:19;;;;;;;21.30;5.80;;;5.60;99.90;;;;;;5075345;28;20718;-79
2024/02/08 11:15:13;;;;;;;24.67;6.68;;;5.60;99.90;;;;;;5075478;28;20156;-80
2024/02/08 11:17:45;;;;;;;22.35;5.75;;;5.70;99.90;;;;;;5074926;28;20621;-79
2024/02/08 11:20:17;;;;;;;22.35;5.30;;;5.70;99.90;;;;;;5057179;28;20245;-79
2024/02/08 11:22:43;;;;;;;22.70;6.00;;;5.70;99.90;;;;;;5075173;28;20149;-79
2024/02/08 11:25:19;;;;;;;22.15;5.80;;;5.70;99.90;;;;;;5075122;28;20165;-79
2024/02/08 11:27:51;;;;;;;20.65;6.00;;;5.70;99.90;;;;;;5074884;28;20266;-79
2024/02/08 11:30:32;;;;;;;20.92;4.93;;;5.70;99.90;;;;;;5074909;28;20217;-79
2024/02/08 11:33:03;;;;;;;19.88;4.88;;;5.70;99.90;;;;;;5075582;28;20145;-79
2024/02/08 11:35:45;;;;;;;19.63;4.88;;;5.80;99.90;;;;;;5075225;28;20153;-79
2024/02/08 11:38:21;;;;;;;19.58;5.00;;;5.90;99.90;;;;;;5056535;28;20211;-79
2024/02/08 11:40:50;;;;;;;24.30;4.72;;;5.90;99.90;;;;;;5074814;28;20144;-79
2024/02/08 11:43:23;;;;;;;20.60;5.68;;;5.90;99.90;;;;;;5074705;28;20174;-80
2024/02/08 11:45:53;;;;;;;18.67;4.43;;;6.00;99.90;;;;;;5074171;28;20149;-79
2024/02/08 11:48:41;;;;;;;20.58;4.75;;;6.00;99.90;;;;;;5074571;28;20192;-79
2024/02/08 11:51:15;;;;;;;24.95;4.45;;;6.10;99.90;;;;;;5057683;28;20153;-79
2024/02/08 11:53:44;;;;;;;24.90;5.40;;;6.10;99.90;;;;;;5074407;28;20157;-79
2024/02/08 11:56:11;;;;;;;18.40;5.47;;;6.10;99.90;;;;;;5056732;28;20661;-79
2024/02/08 11:58:40;;;;;;;17.73;4.30;;;6.10;99.90;;;;;;5074148;28;20200;-79
2024/02/08 12:01:07;;;;;;;20.02;4.75;;;6.20;99.90;;;;;;5074483;28;20196;-79
2024/02/08 12:03:33;;;;;;;19.38;5.13;;;6.20;99.90;;;;;;5056334;28;20176;-79
2024/02/08 12:06:01;;;;;;;18.77;4.72;;;6.20;99.90;;;;;;5074439;28;20171;-79
2024/02/08 12:08:28;;;;;;;27.63;5.40;;;6.20;99.90;;;;;;5073968;28;20189;-79
2024/02/08 12:10:54;;;;;;;20.77;5.13;;;6.30;99.90;;;;;;5055595;28;20184;-79
2024/02/08 12:13:25;;;;;;;18.25;5.32;;;6.40;99.90;;;;;;5074126;28;20169;-79
2024/02/08 12:15:55;;;;;;;20.30;5.25;;;6.40;99.90;;;;;;5074461;28;20176;-79
2024/02/08 12:18:28;;;;;;;23.45;5.20;;;6.40;99.90;;;;;;5074337;28;20188;-79
2024/02/08 12:21:00;;;;;;;22.52;4.88;;;6.40;99.90;;;;;;5074192;28;20156;-79
2024/02/08 12:23:35;;;;;;;19.50;5.60;;;6.50;99.90;;;;;;5074204;28;20275;-79
2024/02/08 12:26:07;;;;;;;18.48;5.38;;;6.50;99.90;;;;;;5056305;28;20156;-79
2024/02/08 12:28:37;;;;;;;20.58;6.25;;;6.60;99.90;;;;;;5074181;28;20251;-79
2024/02/08 12:31:16;;;;;;;19.27;4.53;;;6.60;99.90;;;;;;5074947;28;20152;-79
2024/02/08 12:33:45;;;;;;;18.42;4.70;;;6.60;99.90;;;;;;5074281;28;20149;-79
2024/02/08 12:36:16;;;;;;;20.27;5.20;;;6.70;99.90;;;;;;5074171;28;20180;-79
2024/02/08 12:38:42;;;;;;;19.58;4.85;;;6.70;99.90;;;;;;5073817;28;20230;-79
2024/02/08 12:41:09;;;;;;;18.58;5.20;;;6.80;99.90;;;;;;5073910;28;20165;-79
2024/02/08 12:43:37;;;;;;;19.88;4.65;;;6.90;99.90;;;;;;5074208;28;20210;-79
2024/02/08 12:46:06;;;;;;;19.85;5.68;;;7.10;99.90;;;;;;5055920;28;20222;-79
2024/02/08 12:48:35;;;;;;;18.13;4.85;;;7.10;99.90;;;;;;5074083;28;20188;-79
2024/02/08 12:51:04;;;;;;;20.08;4.97;;;7.20;99.90;;;;;;5055711;28;20208;-79
2024/02/08 12:53:33;;;;;;;17.90;4.95;;;7.20;99.90;;;;;;5074709;28;20248;-79
2024/02/08 12:56:06;;;;;;;19.13;4.85;;;7.10;99.90;;;;;;5055561;28;20523;-80
2024/02/08 12:58:32;;;;;;;19.30;4.82;;;7.20;99.90;;;;;;5056073;28;20200;-80
2024/02/08 13:01:04;;;;;;;19.67;5.33;;;7.30;99.90;;;;;;5074605;28;20691;-79
2024/02/08 13:03:37;;;;;;;20.23;5.60;;;7.20;99.90;;;;;;5056565;28;20402;-79
2024/02/08 13:06:04;;;;;;;17.58;4.93;;;7.10;99.90;;;;;;5073782;28;20144;-79
2024/02/08 13:08:33;;;;;;;25.35;5.25;;;7.20;99.90;;;;;;5073401;28;20565;-79
2024/02/08 13:11:01;;;;;;;18.60;4.95;;;7.20;99.90;;;;;;5055316;28;20176;-79
2024/02/08 13:13:28;;;;;;;21.40;5.80;;;7.10;99.90;;;;;;5073525;28;20190;-79
2024/02/08 13:16:04;;;;;;;18.35;4.95;;;7.10;99.90;;;;;;5055395;28;20181;-79
2024/02/08 13:18:30;;;;;;;21.60;6.03;;;7.20;99.90;;;;;;5073302;28;20223;-79
2024/02/08 13:21:00;;;;;;;21.83;6.40;;;7.20;99.90;;;;;;5073216;28;20172;-79
2024/02/08 13:23:29;;;;;;;18.48;5.78;;;7.20;99.90;;;;;;5073273;28;20209;-79
2024/02/08 13:25:55;;;;;;;20.17;5.93;;;7.30;99.90;;;;;;5073387;28;20240;-79
2024/02/08 13:28:24;;;;;;;20.95;6.25;;;7.30;99.90;;;;;;5073294;28;20278;-79
2024/02/08 13:30:56;;;;;;;20.08;5.97;;;7.40;99.90;;;;;;5073108;28;20513;-79
2024/02/08 13:33:22;;;;;;;20.67;6.35;;;7.50;99.90;;;;;;5055219;28;20175;-79
2024/02/08 13:35:47;;;;;;;19.10;5.10;;;7.50;99.90;;;;;;5073015;28;20176;-79
2024/02/08 13:38:15;;;;;;;18.67;5.27;;;7.50;99.90;;;;;;5073049;28;20573;-79
2024/02/08 13:40:44;;;;;;;21.40;5.53;;;7.60;99.90;;;;;;5073295;28;20430;-79
2024/02/08 13:43:11;;;;;;;22.10;5.25;;;7.70;99.90;;;;;;5073242;28;20218;-79
2024/02/08 13:45:38;;;;;;;19.63;4.90;;;7.80;99.90;;;;;;5073040;28;20211;-79
2024/02/08 13:48:09;;;;;;;18.33;4.30;;;7.80;99.90;;;;;;5073117;28;20192;-79
2024/02/08 13:50:35;;;;;;;18.33;4.65;;;7.80;99.90;;;;;;5073074;28;20145;-80
2024/02/08 13:53:01;;;;;;;21.43;4.67;;;7.70;99.90;;;;;;5072943;28;20203;-79
2024/02/08 13:55:31;;;;;;;17.38;4.30;;;7.70;99.90;;;;;;5073057;28;20160;-79
2024/02/08 13:57:59;;;;;;;17.50;3.97;;;7.60;99.90;;;;;;5073123;28;20184;-79
2024/02/08 14:00:30;;;;;;;20.48;4.40;;;7.60;99.90;;;;;;5073162;28;20160;-79
2024/02/08 14:02:57;;;;;;;21.75;4.07;;;7.70;99.90;;;;;;5073259;28;20495;-79
2024/02/08 14:05:25;;;;;;;18.80;4.40;;;7.70;99.90;;;;;;5073121;28;20583;-79
2024/02/08 14:07:54;;;;;;;20.77;5.45;;;7.70;99.90;;;;;;5072904;28;20212;-79
2024/02/08 14:10:27;;;;;;;19.92;5.50;;;7.70;99.90;;;;;;5058434;28;20172;-79
2024/02/08 14:12:59;;;;;;;19.55;5.65;;;7.70;99.90;;;;;;5076750;28;20156;-80
2024/02/08 14:15:31;;;;;;;20.88;5.15;;;7.70;99.90;;;;;;5076643;28;20159;-79
2024/02/08 14:18:10;;;;;;;20.13;4.68;;;7.80;99.90;;;;;;5076094;28;20192;-79
2024/02/08 14:20:43;;;;;;;21.02;5.40;;;7.80;99.90;;;;;;5058247;28;20159;-79
2024/02/08 14:23:19;;;;;;;22.42;5.50;;;7.80;99.90;;;;;;5076279;28;20149;-79
2024/02/08 14:25:58;;;;;;;18.23;4.53;;;7.80;99.90;;;;;;5076520;28;20145;-79
2024/02/08 14:28:23;;;;;;;18.98;5.32;;;7.80;99.90;;;;;;5076062;28;20188;-79
2024/02/08 14:30:51;;;;;;;19.20;6.10;;;7.80;99.90;;;;;;5076060;28;20183;-80
2024/02/08 14:33:19;;;;;;;20.05;5.93;;;7.80;99.90;;;;;;5076025;28;20536;-79
2024/02/08 14:35:46;;;;;;;20.50;5.35;;;7.80;99.90;;;;;;5075823;28;20167;-79
2024/02/08 14:38:14;;;;;;;22.48;5.78;;;7.80;99.90;;;;;;5075787;28;20235;-79
2024/02/08 14:40:40;;;;;;;17.95;4.13;;;7.80;99.90;;;;;;5057848;28;20222;-79
2024/02/08 14:43:06;;;;;;;21.80;4.85;;;7.80;99.90;;;;;;5075926;28;20533;-80
2024/02/08 14:45:38;;;;;;;17.60;4.80;;;7.80;99.90;;;;;;5076194;28;20247;-80
2024/02/08 14:48:09;;;;;;;22.42;5.88;;;7.80;99.90;;;;;;5075774;28;20188;-79
2024/02/08 14:50:52;;;;;;;19.77;4.40;;;7.80;99.90;;;;;;5075720;28;20641;-79
2024/02/08 14:53:32;;;;;;;17.35;3.88;;;7.90;99.90;;;;;;5075674;28;20235;-80
2024/02/08 14:56:01;;;;;;;19.45;4.95;;;7.90;99.90;;;;;;5075931;28;20141;-79
2024/02/08 14:58:40;;;;;;;19.83;4.35;;;7.90;99.90;;;;;;5075762;28;20670;-79
2024/02/08 15:01:11;;;;;;;18.30;5.45;;;7.90;99.90;;;;;;5075830;28;20503;-81
2024/02/08 15:03:44;;;;;;;19.63;4.63;;;7.90;99.90;;;;;;5076030;28;20656;-79
2024/02/08 15:12:00;;;;;;;23.35;4.63;;;8.00;99.90;;;;;;5075182;28;20152;-79
2024/02/08 15:14:35;;;;;;;19.55;5.05;;;7.90;99.90;;;;;;5075370;28;20166;-79
2024/02/08 15:17:08;;;;;;;18.77;4.50;;;8.00;99.90;;;;;;5075186;28;20239;-79
2024/02/08 15:19:46;;;;;;;18.20;4.57;;;8.00;99.90;;;;;;5075721;28;20194;-79
2024/02/08 15:22:18;;;;;;;17.90;4.18;;;8.00;99.90;;;;;;5075593;28;20362;-79
2024/02/08 15:24:47;;;;;;;17.45;4.25;;;8.00;99.90;;;;;;5075143;28;20621;-80
2024/02/08 15:27:31;;;;;;;16.70;4.00;;;8.00;99.90;;;;;;5075565;28;20215;-79